SAS29G ENGM-EPKK
Flight info
| Callsign | SAS29G |
|---|---|
| Flight time | N/A |
| Altitude | 35000 |
| Route | OKSAT L996 KELIN DCT NEXIL DCT ROE DCT AMROR N983 POLON N133 NEGUV M66 KUKAM |
| Aircraft | A320/M-SDE3FGHIRWY/LB1 |
Departure
| Time | 2026-05-06 14:12 |
|---|---|
| Airport | Oslo-Gardermoen International Airport (ENGM) |
Arrival
| Time | N/A |
|---|---|
| Airport | Kraków John Paul II International Airport (EPKK) |
| Time | Latitude | Longitude | Altitude | Speed | Heading |
|---|---|---|---|---|---|
| 2026-05-06 13:40 | 60.19675 | 11.09957 | 681 ft | 0 kts | 106° |
| 2026-05-06 13:46 | 60.19675 | 11.09956 | 680 ft | 0 kts | 106° |
| 2026-05-06 13:55 | 60.19675 | 11.09955 | 680 ft | 0 kts | 106° |
| 2026-05-06 13:58 | 60.19677 | 11.09945 | 680 ft | 4 kts | 105° |
| 2026-05-06 13:58 | 60.19683 | 11.09893 | 675 ft | 4 kts | 101° |
| 2026-05-06 13:58 | 60.19687 | 11.09840 | 676 ft | 4 kts | 95° |
| 2026-05-06 13:59 | 60.19688 | 11.09786 | 676 ft | 4 kts | 78° |
| 2026-05-06 13:59 | 60.19678 | 11.09745 | 699 ft | 3 kts | 18° |
| 2026-05-06 13:59 | 60.19676 | 11.09743 | 700 ft | 3 kts | 14° |
| 2026-05-06 14:00 | 60.19675 | 11.09743 | 700 ft | 0 kts | 14° |
| 2026-05-06 14:03 | 60.19687 | 11.09749 | 688 ft | 7 kts | 14° |
| 2026-05-06 14:03 | 60.19747 | 11.09784 | 677 ft | 11 kts | 17° |
| 2026-05-06 14:03 | 60.19826 | 11.09830 | 680 ft | 9 kts | 17° |
| 2026-05-06 14:03 | 60.19866 | 11.09853 | 679 ft | 9 kts | 17° |
| 2026-05-06 14:04 | 60.19941 | 11.09895 | 680 ft | 13 kts | 16° |
| 2026-05-06 14:04 | 60.20029 | 11.09953 | 681 ft | 9 kts | 30° |
| 2026-05-06 14:04 | 60.20043 | 11.10038 | 682 ft | 11 kts | 97° |
| 2026-05-06 14:04 | 60.20020 | 11.10206 | 681 ft | 14 kts | 107° |
| 2026-05-06 14:05 | 60.19991 | 11.10408 | 683 ft | 16 kts | 105° |
| 2026-05-06 14:05 | 60.19964 | 11.10595 | 683 ft | 15 kts | 105° |
| 2026-05-06 14:05 | 60.19933 | 11.10815 | 683 ft | 16 kts | 106° |
| 2026-05-06 14:05 | 60.19899 | 11.11047 | 685 ft | 18 kts | 106° |
| 2026-05-06 14:06 | 60.19865 | 11.11289 | 686 ft | 17 kts | 105° |
| 2026-05-06 14:06 | 60.19843 | 11.11469 | 686 ft | 13 kts | 88° |
| 2026-05-06 14:06 | 60.19898 | 11.11553 | 688 ft | 11 kts | 12° |
| 2026-05-06 14:06 | 60.19974 | 11.11597 | 689 ft | 12 kts | 15° |
| 2026-05-06 14:07 | 60.20058 | 11.11643 | 685 ft | 13 kts | 15° |
| 2026-05-06 14:07 | 60.20092 | 11.11732 | 688 ft | 8 kts | 96° |
| 2026-05-06 14:07 | 60.20076 | 11.11851 | 687 ft | 9 kts | 104° |
| 2026-05-06 14:07 | 60.20057 | 11.11984 | 689 ft | 10 kts | 108° |
| 2026-05-06 14:08 | 60.20056 | 11.11990 | 689 ft | 0 kts | 108° |
| 2026-05-06 14:10 | 60.20050 | 11.12024 | 684 ft | 5 kts | 110° |
| 2026-05-06 14:10 | 60.20024 | 11.12112 | 682 ft | 10 kts | 135° |
| 2026-05-06 14:10 | 60.19952 | 11.12145 | 686 ft | 8 kts | 193° |
| 2026-05-06 14:10 | 60.19949 | 11.12143 | 686 ft | 0 kts | 196° |
| 2026-05-06 14:11 | 60.19921 | 11.12127 | 686 ft | 20 kts | 195° |
| 2026-05-06 14:11 | 60.19571 | 11.11926 | 687 ft | 83 kts | 195° |
| 2026-05-06 14:11 | 60.18855 | 11.11515 | 685 ft | 131 kts | 195° |
| 2026-05-06 14:12 | 60.17883 | 11.10969 | 867 ft | 149 kts | 194° |
| 2026-05-06 14:12 | 60.16822 | 11.10486 | 1381 ft | 161 kts | 197° |
| 2026-05-06 14:12 | 60.15720 | 11.09864 | 2012 ft | 171 kts | 198° |
| 2026-05-06 14:12 | 60.14459 | 11.09161 | 2414 ft | 203 kts | 190° |
| 2026-05-06 14:13 | 60.12981 | 11.09573 | 3050 ft | 232 kts | 156° |
| 2026-05-06 14:13 | 60.11658 | 11.11729 | 3718 ft | 258 kts | 135° |
| 2026-05-06 14:13 | 60.10396 | 11.14393 | 4726 ft | 267 kts | 134° |
| 2026-05-06 14:13 | 60.09114 | 11.17139 | 5782 ft | 271 kts | 134° |
| 2026-05-06 14:14 | 60.07815 | 11.19928 | 6790 ft | 275 kts | 134° |
| 2026-05-06 14:14 | 60.06495 | 11.22751 | 7784 ft | 279 kts | 134° |
| 2026-05-06 14:14 | 60.05025 | 11.25229 | 8754 ft | 281 kts | 153° |
| 2026-05-06 14:14 | 60.03275 | 11.27023 | 9794 ft | 283 kts | 155° |
| 2026-05-06 14:15 | 60.01474 | 11.28818 | 10434 ft | 300 kts | 156° |
| 2026-05-06 14:15 | 59.99528 | 11.30740 | 10819 ft | 324 kts | 156° |
| 2026-05-06 14:15 | 59.97430 | 11.32812 | 11181 ft | 348 kts | 156° |
| 2026-05-06 14:15 | 59.95136 | 11.34688 | 11671 ft | 361 kts | 168° |
| 2026-05-06 14:16 | 59.92676 | 11.35918 | 12511 ft | 368 kts | 170° |
| 2026-05-06 14:16 | 59.90167 | 11.37172 | 13400 ft | 373 kts | 170° |
| 2026-05-06 14:16 | 59.87634 | 11.38444 | 14231 ft | 379 kts | 171° |
| 2026-05-06 14:16 | 59.85091 | 11.39724 | 15030 ft | 383 kts | 171° |
| 2026-05-06 14:17 | 59.82485 | 11.41031 | 15868 ft | 388 kts | 171° |
| 2026-05-06 14:17 | 59.79856 | 11.42347 | 16713 ft | 392 kts | 172° |
| 2026-05-06 14:17 | 59.77188 | 11.43670 | 17578 ft | 397 kts | 172° |
| 2026-05-06 14:17 | 59.74496 | 11.44995 | 18391 ft | 401 kts | 173° |
| 2026-05-06 14:18 | 59.71771 | 11.46339 | 19130 ft | 405 kts | 173° |
| 2026-05-06 14:18 | 59.69024 | 11.47701 | 19876 ft | 408 kts | 173° |
| 2026-05-06 14:18 | 59.66255 | 11.49080 | 20632 ft | 411 kts | 173° |
| 2026-05-06 14:18 | 59.63467 | 11.50469 | 21368 ft | 414 kts | 173° |
| 2026-05-06 14:19 | 59.60659 | 11.51861 | 22079 ft | 418 kts | 173° |
| 2026-05-06 14:19 | 59.57825 | 11.53256 | 22806 ft | 421 kts | 174° |
| 2026-05-06 14:19 | 59.54973 | 11.54652 | 23507 ft | 424 kts | 174° |
| 2026-05-06 14:19 | 59.52101 | 11.56055 | 24092 ft | 427 kts | 174° |
| 2026-05-06 14:20 | 59.49208 | 11.57470 | 24661 ft | 428 kts | 174° |
| 2026-05-06 14:20 | 59.46322 | 11.58884 | 25307 ft | 426 kts | 174° |
| 2026-05-06 14:20 | 59.43460 | 11.60295 | 26013 ft | 422 kts | 174° |
| 2026-05-06 14:20 | 59.40612 | 11.61695 | 26632 ft | 419 kts | 174° |
| 2026-05-06 14:21 | 59.37788 | 11.63075 | 27211 ft | 417 kts | 174° |
| 2026-05-06 14:21 | 59.34973 | 11.64441 | 27756 ft | 414 kts | 174° |
| 2026-05-06 14:21 | 59.32216 | 11.65776 | 28245 ft | 412 kts | 175° |
| 2026-05-06 14:21 | 59.29437 | 11.67115 | 28704 ft | 410 kts | 175° |
| 2026-05-06 14:22 | 59.26677 | 11.68448 | 29180 ft | 408 kts | 175° |
| 2026-05-06 14:22 | 59.23927 | 11.69774 | 29653 ft | 406 kts | 175° |
| 2026-05-06 14:22 | 59.21184 | 11.71092 | 30100 ft | 404 kts | 175° |
| 2026-05-06 14:22 | 59.18455 | 11.72409 | 30484 ft | 403 kts | 175° |
| 2026-05-06 14:23 | 59.15734 | 11.73717 | 30847 ft | 402 kts | 175° |
| 2026-05-06 14:23 | 59.13019 | 11.75015 | 31209 ft | 401 kts | 175° |
| 2026-05-06 14:23 | 59.10301 | 11.76310 | 31537 ft | 401 kts | 175° |
| 2026-05-06 14:23 | 59.07627 | 11.77583 | 31892 ft | 400 kts | 175° |
| 2026-05-06 14:24 | 59.04924 | 11.78871 | 32250 ft | 399 kts | 175° |
| 2026-05-06 14:24 | 59.02226 | 11.80158 | 32598 ft | 399 kts | 175° |
| 2026-05-06 14:24 | 58.99532 | 11.81444 | 32946 ft | 398 kts | 175° |
| 2026-05-06 14:24 | 58.96842 | 11.82724 | 33297 ft | 397 kts | 175° |
| 2026-05-06 14:25 | 58.94158 | 11.83995 | 33649 ft | 397 kts | 175° |
| 2026-05-06 14:25 | 58.91477 | 11.85259 | 33976 ft | 396 kts | 175° |
| 2026-05-06 14:25 | 58.88795 | 11.86521 | 34227 ft | 396 kts | 175° |
| 2026-05-06 14:25 | 58.86114 | 11.87776 | 34431 ft | 397 kts | 175° |
| 2026-05-06 14:26 | 58.83421 | 11.89035 | 34626 ft | 397 kts | 174° |
| 2026-05-06 14:26 | 58.80726 | 11.90225 | 34807 ft | 395 kts | 179° |
| 2026-05-06 14:26 | 58.78006 | 11.90984 | 34919 ft | 396 kts | 179° |
| 2026-05-06 14:26 | 58.75295 | 11.91715 | 34946 ft | 402 kts | 179° |
| 2026-05-06 14:27 | 58.69669 | 11.93228 | 34946 ft | 413 kts | 179° |
| 2026-05-06 14:27 | 58.63896 | 11.94783 | 34945 ft | 424 kts | 179° |
| 2026-05-06 14:28 | 58.57997 | 11.96369 | 34947 ft | 432 kts | 179° |
| 2026-05-06 14:28 | 58.51987 | 11.98012 | 34946 ft | 439 kts | 178° |
| 2026-05-06 14:29 | 58.45896 | 11.99665 | 34945 ft | 444 kts | 178° |
| 2026-05-06 14:29 | 58.39769 | 12.01312 | 34943 ft | 449 kts | 178° |
| 2026-05-06 14:30 | 58.36675 | 12.02141 | 35159 ft | 446 kts | 178° |
| 2026-05-06 14:30 | 58.33619 | 12.02968 | 35508 ft | 440 kts | 178° |
| 2026-05-06 14:30 | 58.30609 | 12.03790 | 35834 ft | 435 kts | 178° |
| 2026-05-06 14:30 | 58.27628 | 12.04610 | 36168 ft | 430 kts | 178° |
| 2026-05-06 14:31 | 58.24680 | 12.05426 | 36507 ft | 426 kts | 178° |
| 2026-05-06 14:31 | 58.21757 | 12.06239 | 36852 ft | 422 kts | 178° |
| 2026-05-06 14:31 | 58.18864 | 12.07049 | 37210 ft | 418 kts | 178° |
| 2026-05-06 14:31 | 58.16003 | 12.07855 | 37580 ft | 413 kts | 178° |
| 2026-05-06 14:32 | 58.13178 | 12.08658 | 37963 ft | 408 kts | 177° |
| 2026-05-06 14:32 | 58.10393 | 12.09456 | 38350 ft | 402 kts | 177° |
| 2026-05-06 14:32 | 58.07652 | 12.10249 | 38700 ft | 395 kts | 177° |
| 2026-05-06 14:32 | 58.04962 | 12.11036 | 38995 ft | 387 kts | 177° |
| 2026-05-06 14:33 | 58.02319 | 12.11820 | 39276 ft | 379 kts | 177° |
| 2026-05-06 14:33 | 57.99739 | 12.12596 | 39561 ft | 370 kts | 177° |
| 2026-05-06 14:33 | 57.97224 | 12.13365 | 39769 ft | 363 kts | 177° |
| 2026-05-06 14:33 | 57.94724 | 12.14131 | 39700 ft | 366 kts | 177° |
| 2026-05-06 14:34 | 57.92313 | 12.14862 | 39452 ft | 373 kts | 177° |
| 2026-05-06 14:34 | 57.90360 | 12.15449 | 39305 ft | 377 kts | 177° |
| 2026-05-06 14:34 | 57.85243 | 12.17027 | 39597 ft | 366 kts | 176° |
| 2026-05-06 14:35 | 57.80237 | 12.18635 | 39499 ft | 369 kts | 176° |
| 2026-05-06 14:35 | 57.77682 | 12.19462 | 39310 ft | 374 kts | 176° |
| 2026-05-06 14:35 | 57.75104 | 12.20305 | 39306 ft | 373 kts | 176° |
| 2026-05-06 14:36 | 57.72605 | 12.21140 | 39472 ft | 367 kts | 176° |
| 2026-05-06 14:36 | 57.70102 | 12.21993 | 39577 ft | 364 kts | 175° |
| 2026-05-06 14:36 | 57.67607 | 12.22856 | 39475 ft | 367 kts | 175° |
| 2026-05-06 14:36 | 57.65074 | 12.23735 | 39300 ft | 372 kts | 175° |
| 2026-05-06 14:37 | 57.59983 | 12.25532 | 39378 ft | 368 kts | 175° |
| 2026-05-06 14:37 | 57.57478 | 12.26442 | 39482 ft | 365 kts | 175° |
| 2026-05-06 14:37 | 57.54987 | 12.27358 | 39434 ft | 366 kts | 175° |
| 2026-05-06 14:38 | 57.52466 | 12.28292 | 39278 ft | 371 kts | 174° |
| 2026-05-06 14:38 | 57.49928 | 12.29239 | 39218 ft | 372 kts | 174° |
| 2026-05-06 14:38 | 57.44930 | 12.31147 | 39407 ft | 365 kts | 174° |
| 2026-05-06 14:39 | 57.39934 | 12.33106 | 39255 ft | 369 kts | 174° |
| 2026-05-06 14:39 | 57.34887 | 12.35117 | 39223 ft | 369 kts | 173° |
| 2026-05-06 14:40 | 57.32391 | 12.36134 | 39327 ft | 365 kts | 173° |
| 2026-05-06 14:40 | 57.29899 | 12.37162 | 39334 ft | 365 kts | 173° |
| 2026-05-06 14:40 | 57.27412 | 12.38197 | 39208 ft | 369 kts | 173° |
| 2026-05-06 14:40 | 57.24927 | 12.39238 | 39133 ft | 371 kts | 173° |
| 2026-05-06 14:41 | 57.20013 | 12.41331 | 39248 ft | 366 kts | 173° |
| 2026-05-06 14:41 | 57.15058 | 12.43484 | 39196 ft | 367 kts | 172° |
| 2026-05-06 14:42 | 57.10053 | 12.45680 | 39116 ft | 369 kts | 172° |
| 2026-05-06 14:42 | 57.05111 | 12.47886 | 39250 ft | 365 kts | 172° |
| 2026-05-06 14:43 | 57.00151 | 12.50133 | 39106 ft | 369 kts | 172° |
| 2026-05-06 14:43 | 56.95168 | 12.52430 | 39164 ft | 367 kts | 171° |
| 2026-05-06 14:44 | 56.90232 | 12.54758 | 39177 ft | 366 kts | 171° |
| 2026-05-06 14:45 | 56.82794 | 12.58343 | 39115 ft | 367 kts | 171° |
| 2026-05-06 14:45 | 56.77904 | 12.60762 | 39142 ft | 366 kts | 170° |
| 2026-05-06 14:46 | 56.72964 | 12.63245 | 39028 ft | 369 kts | 170° |
| 2026-05-06 14:46 | 56.68038 | 12.65768 | 39111 ft | 366 kts | 169° |
| 2026-05-06 14:47 | 56.63128 | 12.68330 | 39046 ft | 368 kts | 169° |
| 2026-05-06 14:47 | 56.58196 | 12.70944 | 39012 ft | 368 kts | 169° |
| 2026-05-06 14:48 | 56.54095 | 12.73156 | 39065 ft | 366 kts | 169° |
| 2026-05-06 14:48 | 56.49324 | 12.75761 | 38805 ft | 376 kts | 168° |
| 2026-05-06 14:48 | 56.46813 | 12.77310 | 38611 ft | 385 kts | 163° |
| 2026-05-06 14:49 | 56.44422 | 12.79787 | 37915 ft | 414 kts | 140° |
| 2026-05-06 14:49 | 56.42699 | 12.84059 | 37648 ft | 432 kts | 115° |
| 2026-05-06 14:49 | 56.41625 | 12.89239 | 37097 ft | 450 kts | 114° |
| 2026-05-06 14:49 | 56.40521 | 12.94636 | 36557 ft | 467 kts | 114° |
| 2026-05-06 14:50 | 56.39369 | 13.00223 | 36030 ft | 482 kts | 114° |
| 2026-05-06 14:50 | 56.38101 | 13.05867 | 35818 ft | 481 kts | 122° |
| 2026-05-06 14:50 | 56.36291 | 13.10848 | 35582 ft | 470 kts | 137° |
| 2026-05-06 14:50 | 56.33978 | 13.14824 | 35734 ft | 463 kts | 143° |
| 2026-05-06 14:51 | 56.31566 | 13.18682 | 35836 ft | 463 kts | 143° |
| 2026-05-06 14:51 | 56.26731 | 13.26400 | 35995 ft | 464 kts | 143° |
| 2026-05-06 14:52 | 56.21886 | 13.34099 | 36111 ft | 465 kts | 142° |
| 2026-05-06 14:52 | 56.17024 | 13.41806 | 36240 ft | 466 kts | 142° |
| 2026-05-06 14:53 | 56.12193 | 13.49447 | 35812 ft | 464 kts | 142° |
| 2026-05-06 14:53 | 56.09777 | 13.53257 | 35570 ft | 461 kts | 142° |
| 2026-05-06 14:53 | 56.07376 | 13.57033 | 35354 ft | 457 kts | 142° |
| 2026-05-06 14:53 | 56.04994 | 13.60773 | 35149 ft | 454 kts | 142° |
| 2026-05-06 14:54 | 56.02625 | 13.64493 | 34951 ft | 451 kts | 142° |
| 2026-05-06 14:54 | 55.97963 | 13.71789 | 34962 ft | 439 kts | 142° |
| 2026-05-06 14:55 | 55.93414 | 13.78872 | 34967 ft | 429 kts | 143° |
| 2026-05-06 14:55 | 55.88960 | 13.85789 | 34969 ft | 421 kts | 143° |
| 2026-05-06 14:56 | 55.84579 | 13.92576 | 34971 ft | 413 kts | 143° |
| 2026-05-06 14:56 | 55.80302 | 13.99175 | 34969 ft | 405 kts | 143° |
| 2026-05-06 14:57 | 55.76065 | 14.05683 | 34964 ft | 399 kts | 143° |
| 2026-05-06 14:57 | 55.71920 | 14.12037 | 34967 ft | 392 kts | 143° |
| 2026-05-06 14:58 | 55.67778 | 14.18363 | 34962 ft | 398 kts | 143° |
| 2026-05-06 14:58 | 55.63507 | 14.24868 | 34960 ft | 410 kts | 142° |
| 2026-05-06 14:59 | 55.59120 | 14.31548 | 34942 ft | 422 kts | 142° |
| 2026-05-06 14:59 | 55.54593 | 14.38419 | 34947 ft | 435 kts | 142° |
| 2026-05-06 15:00 | 55.49938 | 14.45460 | 34945 ft | 446 kts | 142° |
| 2026-05-06 15:00 | 55.45170 | 14.52631 | 34943 ft | 454 kts | 142° |
| 2026-05-06 15:01 | 55.40313 | 14.59919 | 34943 ft | 461 kts | 142° |
| 2026-05-06 15:01 | 55.35437 | 14.67225 | 34944 ft | 467 kts | 142° |
| 2026-05-06 15:02 | 55.30451 | 14.74651 | 34941 ft | 472 kts | 142° |
| 2026-05-06 15:02 | 55.27946 | 14.78358 | 35103 ft | 470 kts | 142° |
| 2026-05-06 15:02 | 55.25461 | 14.82032 | 35471 ft | 464 kts | 143° |
| 2026-05-06 15:02 | 55.23012 | 14.85657 | 35827 ft | 458 kts | 143° |
| 2026-05-06 15:03 | 55.20592 | 14.89241 | 36177 ft | 453 kts | 143° |
| 2026-05-06 15:03 | 55.18194 | 14.92796 | 36536 ft | 449 kts | 143° |
| 2026-05-06 15:03 | 55.15825 | 14.96311 | 36875 ft | 446 kts | 143° |
| 2026-05-06 15:04 | 55.11032 | 15.03383 | 36827 ft | 455 kts | 143° |
| 2026-05-06 15:04 | 55.08585 | 15.06971 | 36646 ft | 462 kts | 143° |
| 2026-05-06 15:04 | 55.06099 | 15.10603 | 36407 ft | 469 kts | 143° |
| 2026-05-06 15:04 | 55.03595 | 15.14257 | 36534 ft | 468 kts | 143° |
| 2026-05-06 15:05 | 55.01090 | 15.17911 | 36596 ft | 468 kts | 144° |
| 2026-05-06 15:05 | 54.96117 | 15.25154 | 36678 ft | 470 kts | 144° |
| 2026-05-06 15:06 | 54.91083 | 15.32464 | 36754 ft | 471 kts | 144° |
| 2026-05-06 15:06 | 54.86042 | 15.39765 | 36919 ft | 471 kts | 144° |
| 2026-05-06 15:06 | 54.83522 | 15.43403 | 37046 ft | 470 kts | 144° |
| 2026-05-06 15:07 | 54.81008 | 15.47035 | 37113 ft | 470 kts | 144° |
| 2026-05-06 15:07 | 54.75996 | 15.54244 | 37256 ft | 470 kts | 144° |
| 2026-05-06 15:08 | 54.70940 | 15.61459 | 37342 ft | 471 kts | 144° |
| 2026-05-06 15:08 | 54.65875 | 15.68686 | 37412 ft | 472 kts | 144° |
| 2026-05-06 15:09 | 54.60802 | 15.75915 | 37477 ft | 472 kts | 145° |
| 2026-05-06 15:09 | 54.58279 | 15.79503 | 37232 ft | 466 kts | 145° |
| 2026-05-06 15:09 | 54.55802 | 15.83026 | 36884 ft | 457 kts | 145° |
| 2026-05-06 15:09 | 54.53363 | 15.86479 | 36537 ft | 451 kts | 145° |
| 2026-05-06 15:10 | 54.50938 | 15.89898 | 36203 ft | 448 kts | 145° |
| 2026-05-06 15:10 | 54.48554 | 15.93246 | 35871 ft | 447 kts | 145° |
| 2026-05-06 15:10 | 54.46146 | 15.96625 | 35544 ft | 447 kts | 145° |
| 2026-05-06 15:10 | 54.43731 | 16.00012 | 35214 ft | 447 kts | 145° |
| 2026-05-06 15:11 | 54.41315 | 16.03405 | 34889 ft | 447 kts | 145° |
| 2026-05-06 15:11 | 54.38905 | 16.06794 | 34575 ft | 448 kts | 145° |
| 2026-05-06 15:11 | 54.36492 | 16.10183 | 34262 ft | 448 kts | 145° |
| 2026-05-06 15:11 | 54.34074 | 16.13564 | 33955 ft | 448 kts | 145° |
| 2026-05-06 15:12 | 54.31651 | 16.16938 | 33806 ft | 448 kts | 146° |
| 2026-05-06 15:12 | 54.26798 | 16.23671 | 33844 ft | 450 kts | 146° |
| 2026-05-06 15:13 | 54.21927 | 16.30432 | 33844 ft | 450 kts | 146° |
| 2026-05-06 15:13 | 54.17055 | 16.37168 | 33839 ft | 450 kts | 146° |
| 2026-05-06 15:14 | 54.12178 | 16.43897 | 33830 ft | 451 kts | 146° |
| 2026-05-06 15:14 | 54.07332 | 16.50572 | 33825 ft | 451 kts | 146° |
| 2026-05-06 15:15 | 54.02444 | 16.57268 | 33821 ft | 451 kts | 147° |
| 2026-05-06 15:15 | 53.97547 | 16.63943 | 33819 ft | 451 kts | 147° |
| 2026-05-06 15:16 | 53.92645 | 16.70616 | 33815 ft | 451 kts | 147° |
| 2026-05-06 15:16 | 53.87750 | 16.77269 | 33812 ft | 451 kts | 147° |
| 2026-05-06 15:17 | 53.82850 | 16.83906 | 33807 ft | 451 kts | 147° |
| 2026-05-06 15:17 | 53.77953 | 16.90514 | 33803 ft | 450 kts | 148° |
| 2026-05-06 15:18 | 53.73049 | 16.97096 | 33798 ft | 449 kts | 148° |
| 2026-05-06 15:18 | 53.68206 | 17.03677 | 33791 ft | 450 kts | 146° |
| 2026-05-06 15:19 | 53.63485 | 17.10637 | 33781 ft | 451 kts | 144° |
| 2026-05-06 15:19 | 53.59447 | 17.16747 | 33780 ft | 451 kts | 144° |
| 2026-05-06 15:20 | 53.54750 | 17.23733 | 33779 ft | 450 kts | 145° |
| 2026-05-06 15:20 | 53.50051 | 17.30573 | 33770 ft | 449 kts | 146° |
| 2026-05-06 15:21 | 53.45317 | 17.37423 | 33774 ft | 449 kts | 146° |
| 2026-05-06 15:21 | 53.40598 | 17.44268 | 33766 ft | 448 kts | 146° |
| 2026-05-06 15:22 | 53.35876 | 17.51119 | 33762 ft | 448 kts | 146° |
| 2026-05-06 15:22 | 53.31273 | 17.57763 | 33759 ft | 448 kts | 146° |
| 2026-05-06 15:23 | 53.26551 | 17.64555 | 33756 ft | 447 kts | 146° |
| 2026-05-06 15:23 | 53.21836 | 17.71325 | 33754 ft | 447 kts | 146° |
| 2026-05-06 15:23 | 53.19481 | 17.74695 | 33625 ft | 445 kts | 147° |
| 2026-05-06 15:24 | 53.17128 | 17.78049 | 33374 ft | 444 kts | 147° |
| 2026-05-06 15:24 | 53.14778 | 17.81392 | 32585 ft | 446 kts | 147° |
| 2026-05-06 15:24 | 53.12441 | 17.84713 | 31792 ft | 448 kts | 147° |
| 2026-05-06 15:24 | 53.10069 | 17.88085 | 30993 ft | 450 kts | 147° |
| 2026-05-06 15:25 | 53.07681 | 17.91479 | 30200 ft | 451 kts | 147° |
| 2026-05-06 15:25 | 53.05291 | 17.94878 | 29345 ft | 453 kts | 147° |
| 2026-05-06 15:25 | 53.02888 | 17.98291 | 28360 ft | 455 kts | 146° |
| 2026-05-06 15:25 | 53.00472 | 18.01710 | 27363 ft | 457 kts | 146° |
| 2026-05-06 15:26 | 52.98034 | 18.05151 | 26490 ft | 459 kts | 146° |
| 2026-05-06 15:26 | 52.95594 | 18.08593 | 26121 ft | 462 kts | 146° |
| 2026-05-06 15:26 | 52.93138 | 18.12048 | 25765 ft | 464 kts | 145° |
| 2026-05-06 15:26 | 52.90664 | 18.15520 | 25408 ft | 466 kts | 145° |
| 2026-05-06 15:27 | 52.88185 | 18.18998 | 25059 ft | 467 kts | 145° |
| 2026-05-06 15:27 | 52.85705 | 18.22474 | 24702 ft | 467 kts | 145° |
| 2026-05-06 15:27 | 52.83223 | 18.25948 | 24368 ft | 468 kts | 145° |
| 2026-05-06 15:27 | 52.80729 | 18.29435 | 24029 ft | 469 kts | 145° |
| 2026-05-06 15:28 | 52.78269 | 18.32866 | 23696 ft | 470 kts | 145° |
| 2026-05-06 15:28 | 52.75767 | 18.36346 | 23374 ft | 471 kts | 144° |
| 2026-05-06 15:28 | 52.73259 | 18.39827 | 22990 ft | 472 kts | 144° |
| 2026-05-06 15:28 | 52.70746 | 18.43311 | 22598 ft | 472 kts | 144° |
| 2026-05-06 15:29 | 52.68225 | 18.46796 | 22222 ft | 473 kts | 144° |
| 2026-05-06 15:29 | 52.65704 | 18.50285 | 21846 ft | 474 kts | 144° |
| 2026-05-06 15:29 | 52.63175 | 18.53780 | 21469 ft | 473 kts | 144° |
| 2026-05-06 15:29 | 52.60683 | 18.57222 | 21102 ft | 460 kts | 144° |
| 2026-05-06 15:30 | 52.58272 | 18.60551 | 20737 ft | 445 kts | 144° |
| 2026-05-06 15:30 | 52.55920 | 18.63791 | 20379 ft | 438 kts | 145° |
| 2026-05-06 15:30 | 52.53595 | 18.66980 | 20026 ft | 434 kts | 145° |
| 2026-05-06 15:30 | 52.51277 | 18.70154 | 19684 ft | 432 kts | 145° |
| 2026-05-06 15:31 | 52.49000 | 18.73269 | 19343 ft | 430 kts | 145° |
| 2026-05-06 15:31 | 52.46708 | 18.76402 | 19003 ft | 428 kts | 145° |
| 2026-05-06 15:31 | 52.44426 | 18.79518 | 18665 ft | 426 kts | 145° |
| 2026-05-06 15:32 | 52.40654 | 18.84661 | 18113 ft | 422 kts | 145° |
| 2026-05-06 15:32 | 52.38397 | 18.87727 | 17746 ft | 420 kts | 145° |
| 2026-05-06 15:32 | 52.36147 | 18.90771 | 17373 ft | 419 kts | 145° |
| 2026-05-06 15:32 | 52.33907 | 18.93805 | 17002 ft | 417 kts | 145° |
| 2026-05-06 15:33 | 52.31682 | 18.96823 | 16634 ft | 415 kts | 145° |
| 2026-05-06 15:33 | 52.29455 | 18.99835 | 16268 ft | 413 kts | 145° |
| 2026-05-06 15:33 | 52.27243 | 19.02815 | 15910 ft | 412 kts | 145° |
| 2026-05-06 15:33 | 52.25037 | 19.05783 | 15554 ft | 410 kts | 144° |
| 2026-05-06 15:34 | 52.22840 | 19.08736 | 15205 ft | 408 kts | 144° |
| 2026-05-06 15:34 | 52.20655 | 19.11674 | 14858 ft | 406 kts | 144° |
| 2026-05-06 15:34 | 52.18480 | 19.14596 | 14517 ft | 404 kts | 144° |
| 2026-05-06 15:34 | 52.16317 | 19.17503 | 14177 ft | 401 kts | 144° |
| 2026-05-06 15:35 | 52.14167 | 19.20388 | 13845 ft | 400 kts | 144° |
| 2026-05-06 15:35 | 52.12025 | 19.23251 | 13506 ft | 398 kts | 144° |
| 2026-05-06 15:35 | 52.09890 | 19.26100 | 13130 ft | 396 kts | 144° |
| 2026-05-06 15:35 | 52.07789 | 19.28900 | 12766 ft | 394 kts | 144° |
| 2026-05-06 15:36 | 52.05674 | 19.31712 | 12404 ft | 392 kts | 144° |
| 2026-05-06 15:36 | 52.03565 | 19.34509 | 12045 ft | 390 kts | 144° |
| 2026-05-06 15:36 | 52.01467 | 19.37291 | 11767 ft | 389 kts | 144° |
| 2026-05-06 15:36 | 51.99372 | 19.40068 | 11759 ft | 389 kts | 144° |
| 2026-05-06 15:37 | 51.97275 | 19.42843 | 11765 ft | 389 kts | 144° |
| 2026-05-06 15:37 | 51.95170 | 19.45629 | 11770 ft | 389 kts | 144° |
| 2026-05-06 15:37 | 51.93067 | 19.48411 | 11770 ft | 389 kts | 144° |
| 2026-05-06 15:37 | 51.90968 | 19.51186 | 11775 ft | 389 kts | 145° |
| 2026-05-06 15:38 | 51.88869 | 19.53955 | 11775 ft | 389 kts | 145° |
| 2026-05-06 15:38 | 51.86768 | 19.56720 | 11705 ft | 389 kts | 145° |
| 2026-05-06 15:38 | 51.84664 | 19.59485 | 11475 ft | 388 kts | 145° |
| 2026-05-06 15:38 | 51.82591 | 19.62202 | 11249 ft | 387 kts | 146° |
| 2026-05-06 15:39 | 51.80374 | 19.64650 | 11024 ft | 382 kts | 154° |
| 2026-05-06 15:39 | 51.78035 | 19.66550 | 10805 ft | 378 kts | 161° |
| 2026-05-06 15:39 | 51.75534 | 19.67987 | 10576 ft | 376 kts | 166° |
| 2026-05-06 15:39 | 51.73083 | 19.69270 | 10359 ft | 375 kts | 166° |
| 2026-05-06 15:40 | 51.70602 | 19.70577 | 10141 ft | 374 kts | 166° |
| 2026-05-06 15:40 | 51.68131 | 19.71885 | 9916 ft | 373 kts | 166° |
| 2026-05-06 15:40 | 51.65677 | 19.73183 | 9703 ft | 367 kts | 165° |
| 2026-05-06 15:40 | 51.63300 | 19.74444 | 9464 ft | 353 kts | 165° |
| 2026-05-06 15:41 | 51.61008 | 19.75654 | 9223 ft | 340 kts | 166° |
| 2026-05-06 15:41 | 51.58795 | 19.76818 | 8999 ft | 329 kts | 166° |
| 2026-05-06 15:41 | 51.56646 | 19.77944 | 8756 ft | 320 kts | 166° |
| 2026-05-06 15:41 | 51.54555 | 19.79039 | 8530 ft | 312 kts | 166° |
| 2026-05-06 15:42 | 51.52514 | 19.80108 | 8298 ft | 305 kts | 166° |
| 2026-05-06 15:42 | 51.50516 | 19.81149 | 8069 ft | 298 kts | 166° |
| 2026-05-06 15:42 | 51.48561 | 19.82165 | 7846 ft | 292 kts | 166° |
| 2026-05-06 15:42 | 51.46648 | 19.83162 | 7621 ft | 286 kts | 166° |
| 2026-05-06 15:43 | 51.44770 | 19.84144 | 7399 ft | 281 kts | 166° |
| 2026-05-06 15:43 | 51.42930 | 19.85110 | 7177 ft | 276 kts | 166° |
| 2026-05-06 15:43 | 51.41112 | 19.86060 | 6950 ft | 273 kts | 166° |
| 2026-05-06 15:43 | 51.39308 | 19.86997 | 6732 ft | 271 kts | 166° |
| 2026-05-06 15:44 | 51.37511 | 19.87929 | 6516 ft | 271 kts | 165° |
| 2026-05-06 15:44 | 51.35715 | 19.88858 | 6300 ft | 270 kts | 165° |
| 2026-05-06 15:44 | 51.33926 | 19.89788 | 6077 ft | 270 kts | 165° |
| 2026-05-06 15:44 | 51.32169 | 19.90702 | 5875 ft | 269 kts | 165° |
| 2026-05-06 15:45 | 51.30395 | 19.91622 | 5783 ft | 268 kts | 165° |
| 2026-05-06 15:45 | 51.28595 | 19.92553 | 5791 ft | 269 kts | 165° |
| 2026-05-06 15:45 | 51.26837 | 19.93461 | 5791 ft | 269 kts | 166° |
| 2026-05-06 15:45 | 51.25053 | 19.94384 | 5795 ft | 270 kts | 165° |
| 2026-05-06 15:46 | 51.23260 | 19.95309 | 5791 ft | 271 kts | 165° |
| 2026-05-06 15:46 | 51.21461 | 19.96238 | 5795 ft | 271 kts | 165° |
| 2026-05-06 15:46 | 51.19667 | 19.97165 | 5797 ft | 271 kts | 165° |
| 2026-05-06 15:46 | 51.17875 | 19.98090 | 5799 ft | 270 kts | 165° |
| 2026-05-06 15:47 | 51.16086 | 19.99010 | 5799 ft | 270 kts | 165° |
| 2026-05-06 15:47 | 51.14295 | 19.99928 | 5799 ft | 270 kts | 165° |
| 2026-05-06 15:47 | 51.12509 | 20.00841 | 5801 ft | 270 kts | 165° |
| 2026-05-06 15:47 | 51.10722 | 20.01756 | 5800 ft | 269 kts | 165° |
| 2026-05-06 15:48 | 51.08938 | 20.02669 | 5800 ft | 269 kts | 165° |
| 2026-05-06 15:48 | 51.07150 | 20.03583 | 5804 ft | 270 kts | 165° |
| 2026-05-06 15:48 | 51.05385 | 20.04484 | 5803 ft | 270 kts | 165° |
| 2026-05-06 15:48 | 51.03573 | 20.05413 | 5803 ft | 270 kts | 165° |
| 2026-05-06 15:49 | 51.01809 | 20.06317 | 5809 ft | 269 kts | 166° |
| 2026-05-06 15:49 | 50.99984 | 20.06849 | 5809 ft | 267 kts | 177° |
| 2026-05-06 15:49 | 50.98141 | 20.07257 | 5804 ft | 267 kts | 172° |
| 2026-05-06 15:49 | 50.96312 | 20.07825 | 5808 ft | 268 kts | 171° |
| 2026-05-06 15:50 | 50.94493 | 20.08439 | 5807 ft | 268 kts | 171° |
| 2026-05-06 15:50 | 50.92667 | 20.09068 | 5808 ft | 269 kts | 171° |
| 2026-05-06 15:50 | 50.90838 | 20.09697 | 5806 ft | 268 kts | 171° |
| 2026-05-06 15:50 | 50.89008 | 20.10319 | 5813 ft | 269 kts | 171° |
| 2026-05-06 15:51 | 50.87203 | 20.10928 | 5799 ft | 268 kts | 171° |
| 2026-05-06 15:51 | 50.85380 | 20.11539 | 5704 ft | 267 kts | 171° |
| 2026-05-06 15:51 | 50.83562 | 20.12146 | 5608 ft | 267 kts | 171° |
| 2026-05-06 15:51 | 50.81743 | 20.12751 | 5506 ft | 267 kts | 171° |
| 2026-05-06 15:52 | 50.79919 | 20.13358 | 5401 ft | 267 kts | 171° |
| 2026-05-06 15:52 | 50.78099 | 20.13962 | 5299 ft | 266 kts | 171° |
| 2026-05-06 15:52 | 50.76288 | 20.14563 | 5203 ft | 266 kts | 171° |
| 2026-05-06 15:52 | 50.74480 | 20.15159 | 5086 ft | 265 kts | 171° |
| 2026-05-06 15:53 | 50.72707 | 20.15741 | 4982 ft | 264 kts | 171° |
| 2026-05-06 15:53 | 50.70940 | 20.16323 | 4847 ft | 251 kts | 171° |
| 2026-05-06 15:53 | 50.69292 | 20.16876 | 4721 ft | 234 kts | 171° |
| 2026-05-06 15:53 | 50.67757 | 20.17393 | 4595 ft | 220 kts | 171° |
| 2026-05-06 15:54 | 50.66274 | 20.17886 | 4472 ft | 216 kts | 172° |
| 2026-05-06 15:54 | 50.64802 | 20.18367 | 4345 ft | 215 kts | 172° |
| 2026-05-06 15:54 | 50.63336 | 20.18843 | 4219 ft | 214 kts | 172° |
| 2026-05-06 15:54 | 50.61888 | 20.19315 | 4110 ft | 214 kts | 172° |
| 2026-05-06 15:55 | 50.60445 | 20.19789 | 4019 ft | 210 kts | 171° |
| 2026-05-06 15:55 | 50.59018 | 20.20260 | 4028 ft | 210 kts | 172° |
| 2026-05-06 15:55 | 50.57590 | 20.20729 | 4027 ft | 209 kts | 172° |
| 2026-05-06 15:55 | 50.56163 | 20.21195 | 4027 ft | 209 kts | 172° |
| 2026-05-06 15:56 | 50.54738 | 20.21660 | 4060 ft | 205 kts | 172° |
| 2026-05-06 15:56 | 50.53374 | 20.22112 | 4036 ft | 197 kts | 172° |
| 2026-05-06 15:56 | 50.52044 | 20.22549 | 4019 ft | 195 kts | 172° |
| 2026-05-06 15:56 | 50.50716 | 20.22982 | 4026 ft | 195 kts | 172° |
| 2026-05-06 15:57 | 50.49381 | 20.23415 | 4037 ft | 196 kts | 172° |
| 2026-05-06 15:57 | 50.48042 | 20.23851 | 4031 ft | 196 kts | 172° |
| 2026-05-06 15:57 | 50.46707 | 20.24289 | 4029 ft | 195 kts | 172° |
| 2026-05-06 15:57 | 50.45373 | 20.24724 | 4036 ft | 196 kts | 173° |
| 2026-05-06 15:58 | 50.44055 | 20.25153 | 4029 ft | 195 kts | 172° |
| 2026-05-06 15:58 | 50.42726 | 20.25588 | 4032 ft | 189 kts | 171° |
| 2026-05-06 15:58 | 50.41479 | 20.25999 | 4028 ft | 177 kts | 172° |
| 2026-05-06 15:58 | 50.40327 | 20.26378 | 4027 ft | 162 kts | 172° |
| 2026-05-06 15:59 | 50.39268 | 20.26728 | 4018 ft | 148 kts | 173° |
| 2026-05-06 15:59 | 50.38313 | 20.27044 | 3919 ft | 137 kts | 173° |
| 2026-05-06 15:59 | 50.37301 | 20.27366 | 3561 ft | 173 kts | 172° |
| 2026-05-06 15:59 | 50.35989 | 20.27765 | 3512 ft | 199 kts | 172° |
| 2026-05-06 16:00 | 50.34653 | 20.28196 | 3490 ft | 195 kts | 172° |
| 2026-05-06 16:00 | 50.33328 | 20.28632 | 3496 ft | 194 kts | 171° |
| 2026-05-06 16:00 | 50.32017 | 20.29065 | 3397 ft | 187 kts | 172° |
| 2026-05-06 16:00 | 50.30806 | 20.29467 | 3289 ft | 173 kts | 171° |
| 2026-05-06 16:01 | 50.29641 | 20.29849 | 3181 ft | 166 kts | 171° |
| 2026-05-06 16:01 | 50.28537 | 20.30207 | 3100 ft | 164 kts | 172° |
| 2026-05-06 16:01 | 50.27422 | 20.30569 | 3055 ft | 162 kts | 171° |
| 2026-05-06 16:01 | 50.26341 | 20.30921 | 3064 ft | 158 kts | 172° |
| 2026-05-06 16:02 | 50.25267 | 20.31268 | 3056 ft | 158 kts | 173° |
| 2026-05-06 16:02 | 50.24150 | 20.31625 | 3042 ft | 161 kts | 172° |
| 2026-05-06 16:02 | 50.23066 | 20.31978 | 3036 ft | 158 kts | 172° |
| 2026-05-06 16:02 | 50.21988 | 20.32329 | 3048 ft | 158 kts | 172° |
| 2026-05-06 16:03 | 50.20911 | 20.32680 | 3042 ft | 158 kts | 172° |
| 2026-05-06 16:03 | 50.19834 | 20.33033 | 3028 ft | 157 kts | 171° |
| 2026-05-06 16:03 | 50.18751 | 20.33386 | 3047 ft | 162 kts | 171° |
| 2026-05-06 16:03 | 50.17644 | 20.33618 | 3062 ft | 162 kts | 185° |
| 2026-05-06 16:04 | 50.16555 | 20.33248 | 3036 ft | 154 kts | 206° |